createdAt,value
2018-08-13T00:12:21.350Z,18.31
2018-08-13T00:14:51.798Z,18.30
2018-08-13T00:34:43.017Z,18.07
2018-08-13T00:37:13.058Z,18.07
2018-08-13T00:39:42.686Z,18.00
2018-08-13T00:42:12.548Z,17.83
2018-08-13T00:44:42.388Z,17.88
2018-08-13T00:47:11.991Z,17.89
2018-08-13T00:49:41.426Z,17.84
2018-08-13T00:52:11.395Z,17.76
2018-08-13T00:54:41.137Z,17.70
2018-08-13T00:57:11.278Z,17.73
2018-08-13T00:59:41.569Z,17.49
2018-08-13T01:02:11.379Z,17.29
2018-08-13T01:04:41.074Z,17.31
2018-08-13T01:07:10.920Z,17.25
2018-08-13T01:09:40.403Z,17.24
2018-08-13T01:12:10.040Z,17.27
2018-08-13T01:14:40.086Z,17.30
2018-08-13T01:17:09.466Z,17.29
2018-08-13T01:19:39.045Z,17.21
2018-08-13T01:22:08.973Z,17.15
2018-08-13T01:42:01.258Z,16.97
2018-08-13T02:01:52.031Z,17.00
2018-08-13T02:04:21.710Z,16.99
2018-08-13T02:06:51.077Z,16.90
2018-08-13T02:09:20.877Z,16.84
2018-08-13T02:11:50.458Z,16.91
2018-08-13T02:14:20.173Z,16.86
2018-08-13T02:16:50.020Z,16.85
2018-08-13T02:19:19.696Z,16.89
2018-08-13T02:47:51.755Z,16.66
2018-08-13T02:50:21.612Z,16.62
2018-08-13T02:52:51.394Z,16.63
2018-08-13T02:55:21.005Z,16.58
2018-08-13T02:57:51.234Z,16.47
2018-08-13T03:00:20.938Z,16.57
2018-08-13T03:02:50.308Z,16.55
2018-08-13T03:05:20.295Z,16.37
2018-08-13T03:07:50.122Z,16.40
2018-08-13T03:27:41.401Z,16.22
2018-08-13T03:30:12.469Z,16.19
2018-08-13T03:50:04.176Z,16.14
2018-08-13T03:52:33.523Z,16.12
2018-08-13T03:55:03.098Z,16.31
2018-08-13T03:57:32.416Z,16.33
2018-08-13T04:00:02.299Z,16.35
2018-08-13T04:02:31.836Z,16.32
2018-08-13T04:22:24.317Z,16.56
2018-08-13T04:24:53.837Z,16.60
2018-08-13T04:44:45.599Z,16.76
2018-08-13T04:47:15.422Z,16.71
2018-08-13T04:49:44.718Z,16.73
2018-08-13T04:52:14.720Z,16.83
2018-08-13T04:54:44.384Z,16.89
2018-08-13T04:57:14.197Z,16.92
2018-08-13T04:59:43.637Z,16.93
2018-08-13T05:02:13.130Z,17.03
2018-08-13T05:04:42.454Z,17.09
2018-08-13T05:07:12.461Z,17.10
2018-08-13T05:09:42.114Z,17.15
2018-08-13T05:12:11.900Z,17.21
2018-08-13T05:14:41.916Z,17.29
2018-08-13T05:17:12.121Z,17.24
2018-08-13T05:19:41.884Z,17.36
2018-08-13T05:22:11.475Z,17.58
2018-08-13T05:24:41.228Z,17.42
2018-08-13T05:27:10.791Z,17.48
2018-08-13T05:29:40.762Z,17.48
2018-08-13T05:32:10.278Z,17.55
2018-08-13T05:34:40.024Z,17.44
2018-08-13T05:37:09.701Z,17.56
2018-08-13T05:39:39.286Z,17.52
2018-08-13T05:42:08.837Z,17.62
2018-08-13T05:44:39.030Z,17.67
2018-08-13T05:47:08.546Z,17.69
2018-08-13T05:49:38.246Z,17.76
2018-08-13T05:52:08.493Z,17.79
2018-08-13T05:54:37.953Z,17.86
2018-08-13T05:57:07.667Z,17.94
2018-08-13T05:59:37.802Z,17.84
2018-08-13T06:19:29.799Z,18.44
2018-08-13T06:21:59.835Z,18.43
2018-08-13T06:24:29.330Z,18.50
2018-08-13T06:26:59.116Z,18.53
2018-08-13T06:29:29.003Z,18.04
2018-08-13T06:31:58.812Z,18.21
2018-08-13T06:34:28.310Z,18.45
2018-08-13T06:36:58.262Z,18.50
2018-08-13T06:39:27.746Z,18.48
2018-08-13T06:41:57.236Z,18.52
2018-08-13T06:44:26.788Z,18.67
2018-08-13T06:46:56.376Z,18.78
2018-08-13T07:06:48.601Z,19.43
2018-08-13T07:09:18.525Z,19.58
2018-08-13T07:29:10.809Z,20.08
2018-08-13T07:49:02.456Z,21.03
2018-08-13T07:51:32.656Z,21.11
2018-08-13T07:54:02.365Z,21.15
2018-08-13T07:56:31.952Z,21.29
2018-08-13T07:59:02.357Z,21.42
2018-08-13T08:18:54.401Z,21.78
2018-08-13T08:21:24.669Z,21.89
2018-08-13T08:23:54.538Z,22.09
2018-08-13T08:26:24.322Z,22.03
2018-08-13T08:28:54.401Z,22.19
2018-08-13T08:31:23.807Z,22.22
2018-08-13T08:33:54.193Z,22.44
2018-08-13T08:53:46.845Z,23.25
2018-08-13T08:56:16.588Z,23.20
2018-08-13T08:58:46.516Z,23.35
2018-08-13T09:01:16.361Z,23.42
2018-08-13T09:03:46.139Z,23.66
2018-08-13T09:23:49.704Z,24.56
2018-08-13T09:26:30.224Z,24.49
2018-08-13T09:46:22.014Z,25.00
2018-08-13T09:48:51.561Z,25.26
2018-08-13T09:51:21.292Z,25.34
2018-08-13T09:53:51.089Z,25.37
2018-08-13T09:56:20.916Z,25.47
2018-08-13T10:16:12.867Z,26.73
2018-08-13T10:18:42.390Z,26.42
2018-08-13T10:21:12.175Z,26.52
2018-08-13T10:23:42.200Z,26.65
2018-08-13T10:26:11.712Z,26.95
2018-08-13T10:28:40.998Z,27.02
2018-08-13T10:31:10.935Z,27.10
2018-08-13T10:33:40.405Z,27.30
2018-08-13T10:36:09.997Z,27.44
2018-08-13T10:38:39.756Z,27.64
2018-08-13T10:41:09.432Z,27.83
2018-08-13T10:43:39.190Z,28.10
2018-08-13T10:46:09.366Z,28.25
2018-08-13T10:48:38.882Z,28.08
2018-08-13T10:51:08.639Z,28.39
2018-08-13T10:53:38.462Z,28.11
2018-08-13T10:56:08.338Z,27.91
2018-08-13T10:58:37.931Z,28.03
2018-08-13T11:01:08.159Z,28.40
2018-08-13T11:03:37.763Z,28.70
2018-08-13T11:06:07.459Z,28.92
2018-08-13T11:08:37.082Z,29.07
2018-08-13T11:28:28.404Z,29.67
2018-08-13T11:30:58.126Z,29.65
2018-08-13T11:33:27.830Z,29.83
2018-08-13T11:35:57.476Z,29.86
2018-08-13T11:38:26.821Z,30.19
2018-08-13T11:40:56.352Z,30.12
2018-08-13T12:00:48.024Z,30.88
2018-08-13T12:03:17.737Z,30.82
2018-08-13T12:05:47.603Z,30.97
2018-08-13T12:08:17.427Z,30.69
2018-08-13T12:10:46.918Z,30.72
2018-08-13T12:13:16.468Z,31.02
2018-08-13T12:15:46.469Z,31.02
2018-08-13T12:18:16.539Z,31.11
2018-08-13T12:20:47.568Z,31.40
2018-08-13T12:40:38.737Z,31.88
2018-08-13T12:43:09.161Z,31.85
2018-08-13T13:03:00.442Z,32.17
2018-08-13T13:05:29.930Z,32.33
2018-08-13T13:07:59.671Z,32.11
2018-08-13T13:10:29.216Z,32.15
2018-08-13T13:12:59.291Z,32.04
2018-08-13T13:32:51.301Z,32.54
2018-08-13T13:35:21.606Z,32.51
2018-08-13T13:37:51.117Z,32.62
2018-08-13T13:40:20.901Z,32.89
2018-08-13T13:42:51.067Z,33.02
2018-08-13T13:45:20.694Z,32.87
2018-08-13T13:47:50.418Z,32.75
2018-08-13T13:50:20.722Z,32.89
2018-08-13T14:10:14.511Z,32.98
2018-08-13T14:12:45.063Z,32.73
2018-08-13T14:15:16.097Z,32.83
2018-08-13T14:17:46.289Z,32.97
2018-08-13T14:20:16.104Z,33.13
2018-08-13T14:51:43.193Z,32.97
2018-08-13T14:54:12.706Z,33.03
2018-08-13T14:56:42.354Z,32.85
2018-08-13T14:59:12.508Z,32.63
2018-08-13T15:01:42.070Z,32.43
2018-08-13T15:04:11.624Z,32.21
2018-08-13T15:06:41.579Z,32.05
2018-08-13T15:09:11.927Z,32.44
2018-08-13T15:11:42.807Z,32.52
2018-08-13T15:14:14.201Z,32.60
2018-08-13T15:16:44.527Z,32.32
2018-08-13T15:19:14.146Z,32.40
2018-08-13T15:39:09.293Z,32.34
2018-08-13T15:41:38.982Z,32.33
2018-08-13T15:44:10.175Z,32.29
2018-08-13T15:46:40.016Z,32.40
2018-08-13T15:49:11.265Z,32.21
2018-08-13T15:51:41.075Z,32.31
2018-08-13T15:54:10.971Z,32.37
2018-08-13T15:56:40.901Z,32.29
2018-08-13T15:59:11.371Z,32.14
2018-08-13T16:01:41.046Z,31.61
2018-08-13T16:04:11.218Z,31.93
2018-08-13T16:06:40.842Z,32.00
2018-08-13T16:09:10.456Z,32.01
2018-08-13T16:29:02.045Z,30.47
2018-08-13T16:31:31.703Z,30.36
2018-08-13T16:34:01.452Z,30.03
2018-08-13T16:36:31.383Z,29.74
2018-08-13T16:39:00.982Z,29.72
2018-08-13T16:41:30.534Z,29.57
2018-08-13T17:01:22.207Z,28.61
2018-08-13T17:03:51.787Z,28.60
2018-08-13T17:06:21.302Z,28.42
2018-08-13T17:26:14.067Z,27.51
2018-08-13T17:28:43.759Z,27.43
2018-08-13T17:31:13.763Z,27.36
2018-08-13T17:33:43.947Z,27.41
2018-08-13T17:36:13.776Z,27.30
2018-08-13T17:56:05.706Z,26.56
2018-08-13T17:58:35.343Z,26.47
2018-08-13T18:01:05.242Z,26.41
2018-08-13T18:03:35.419Z,26.33
2018-08-13T18:06:05.248Z,26.25
2018-08-13T18:08:35.045Z,26.26
2018-08-13T18:11:05.161Z,26.26
2018-08-13T18:13:35.476Z,26.04
2018-08-13T18:16:05.345Z,26.05
2018-08-13T18:18:35.538Z,25.86
2018-08-13T18:21:05.676Z,25.89
2018-08-13T18:23:35.206Z,25.65
2018-08-13T18:26:05.353Z,25.51
2018-08-13T18:28:35.524Z,25.45
2018-08-13T18:31:05.077Z,25.29
2018-08-13T18:33:35.634Z,25.32
2018-08-13T18:36:05.555Z,25.08
2018-08-13T18:38:35.366Z,25.06
2018-08-13T18:41:04.875Z,24.96
2018-08-13T18:43:34.553Z,24.75
2018-08-13T18:46:04.355Z,24.70
2018-08-13T18:48:34.606Z,24.63
2018-08-13T18:51:05.217Z,24.73
2018-08-13T18:53:35.531Z,24.59
2018-08-13T18:56:05.261Z,24.54
2018-08-13T18:58:35.052Z,24.38
2018-08-13T19:01:04.719Z,24.41
2018-08-13T19:03:34.380Z,24.34
2018-08-13T19:06:05.085Z,24.39
2018-08-13T19:08:34.548Z,24.30
2018-08-13T19:11:04.411Z,24.27
2018-08-13T19:13:34.370Z,24.29
2018-08-13T19:16:03.834Z,24.30
2018-08-13T19:35:55.922Z,23.82
2018-08-13T19:38:25.871Z,23.81
2018-08-13T19:40:55.525Z,23.71
2018-08-13T19:43:25.974Z,23.66
2018-08-13T19:45:55.737Z,23.65
2018-08-13T19:48:25.801Z,23.58
2018-08-13T19:50:55.181Z,23.57
2018-08-13T19:53:25.122Z,23.47
2018-08-13T19:55:54.958Z,23.43
2018-08-13T19:58:24.764Z,23.37
2018-08-13T20:00:54.540Z,23.30
2018-08-13T20:03:24.459Z,23.25
2018-08-13T20:05:54.566Z,23.23
2018-08-13T20:25:46.340Z,22.51
2018-08-13T20:28:16.486Z,22.51
2018-08-13T20:30:46.940Z,22.54
2018-08-13T20:33:16.633Z,22.47
2018-08-13T20:35:46.934Z,22.38
2018-08-13T20:38:16.424Z,22.28
2018-08-13T20:40:46.292Z,22.26
2018-08-13T20:43:16.073Z,22.22
2018-08-13T20:45:45.677Z,22.14
2018-08-13T20:48:15.278Z,21.98
2018-08-13T20:50:45.520Z,21.90
2018-08-13T20:53:15.082Z,21.75
2018-08-13T20:55:44.871Z,21.87
2018-08-13T20:58:14.982Z,21.81
2018-08-13T21:00:44.469Z,21.68
2018-08-13T21:03:14.148Z,21.65
2018-08-13T21:05:44.366Z,21.66
2018-08-13T21:08:13.895Z,21.62
2018-08-13T21:10:43.448Z,21.55
2018-08-13T21:13:13.640Z,21.50
2018-08-13T21:15:43.000Z,21.42
2018-08-13T21:18:13.556Z,21.32
2018-08-13T21:20:43.815Z,21.29
2018-08-13T21:23:13.412Z,21.23
2018-08-13T21:25:43.171Z,21.29
2018-08-13T21:28:13.419Z,21.28
2018-08-13T21:30:42.975Z,21.26
2018-08-13T21:33:12.901Z,21.20
2018-08-13T21:35:42.374Z,21.15
2018-08-13T21:38:12.149Z,21.02
2018-08-13T21:40:41.957Z,20.92
2018-08-13T21:43:11.916Z,20.94
2018-08-13T21:45:42.638Z,21.04
2018-08-13T21:48:12.285Z,20.89
2018-08-13T21:50:42.254Z,20.85
2018-08-13T21:53:11.971Z,20.93
2018-08-13T21:55:41.757Z,20.90
2018-08-13T21:58:12.125Z,20.81
2018-08-13T22:00:47.806Z,20.81
2018-08-13T22:03:18.037Z,20.73
2018-08-13T22:05:47.587Z,20.77
2018-08-13T22:08:17.088Z,20.72
2018-08-13T22:10:47.159Z,20.65
2018-08-13T22:13:16.957Z,20.62
2018-08-13T22:15:46.527Z,20.66
2018-08-13T22:18:16.560Z,20.63
2018-08-13T22:20:46.068Z,20.40
2018-08-13T22:23:15.858Z,20.48
2018-08-13T22:25:47.121Z,20.27
2018-08-13T22:28:18.158Z,20.18
2018-08-13T22:30:49.235Z,20.18
2018-08-13T22:33:19.128Z,20.09
2018-08-13T22:35:48.728Z,20.12
2018-08-13T22:38:19.248Z,20.24
2018-08-13T22:40:49.225Z,20.19
2018-08-13T22:43:18.790Z,20.14
2018-08-13T22:45:49.126Z,20.13
2018-08-13T22:48:18.576Z,20.16
2018-08-13T22:50:49.131Z,20.10
2018-08-13T22:53:18.965Z,19.98
2018-08-13T22:55:48.641Z,19.84
2018-08-13T22:58:18.463Z,19.85
2018-08-13T23:00:48.271Z,19.90
2018-08-13T23:03:18.007Z,19.91
2018-08-13T23:05:47.888Z,19.79
2018-08-13T23:08:17.707Z,19.82
2018-08-13T23:10:47.633Z,19.71
2018-08-13T23:13:19.457Z,19.76
2018-08-13T23:15:49.221Z,19.70
2018-08-13T23:18:19.006Z,19.58
2018-08-13T23:20:48.775Z,19.64
2018-08-13T23:23:19.386Z,19.68
2018-08-13T23:25:48.756Z,19.65
2018-08-13T23:28:18.897Z,19.57
2018-08-13T23:30:48.419Z,19.53
2018-08-13T23:33:17.918Z,19.49
2018-08-13T23:35:48.962Z,19.44
2018-08-13T23:38:18.700Z,19.48
2018-08-13T23:40:48.509Z,19.40
2018-08-13T23:43:18.361Z,19.40
2018-08-13T23:45:48.282Z,19.28
2018-08-13T23:48:17.910Z,19.31
2018-08-13T23:50:47.921Z,19.27
2018-08-13T23:53:17.694Z,19.34
2018-08-13T23:55:47.265Z,19.22
2018-08-13T23:58:17.164Z,19.27
